sensor_id;sensor_type;location;lat;lon;timestamp;P1;durP1;ratioP1;P2;durP2;ratioP2
73575;SDS011;61859;49.204;8.140;2023-03-01T00:01:58;8.03;;;6.07;;
73575;SDS011;61859;49.204;8.140;2023-03-01T00:04:23;9.90;;;6.20;;
73575;SDS011;61859;49.204;8.140;2023-03-01T00:06:49;9.43;;;6.20;;
73575;SDS011;61859;49.204;8.140;2023-03-01T00:09:15;17.53;;;6.60;;
73575;SDS011;61859;49.204;8.140;2023-03-01T00:11:40;9.27;;;6.17;;
73575;SDS011;61859;49.204;8.140;2023-03-01T00:14:06;8.00;;;5.93;;
73575;SDS011;61859;49.204;8.140;2023-03-01T00:16:39;9.73;;;6.17;;
73575;SDS011;61859;49.204;8.140;2023-03-01T00:19:07;11.80;;;6.23;;
73575;SDS011;61859;49.204;8.140;2023-03-01T00:21:36;9.67;;;6.40;;
73575;SDS011;61859;49.204;8.140;2023-03-01T00:24:02;10.97;;;6.43;;
73575;SDS011;61859;49.204;8.140;2023-03-01T00:26:28;9.43;;;6.07;;
73575;SDS011;61859;49.204;8.140;2023-03-01T00:28:54;8.87;;;5.80;;
73575;SDS011;61859;49.204;8.140;2023-03-01T00:31:22;12.37;;;7.07;;
73575;SDS011;61859;49.204;8.140;2023-03-01T00:33:52;11.63;;;6.67;;
73575;SDS011;61859;49.204;8.140;2023-03-01T00:36:22;10.93;;;6.30;;
73575;SDS011;61859;49.204;8.140;2023-03-01T00:38:48;14.40;;;6.17;;
73575;SDS011;61859;49.204;8.140;2023-03-01T00:41:14;8.63;;;6.63;;
73575;SDS011;61859;49.204;8.140;2023-03-01T00:43:41;9.90;;;6.20;;
73575;SDS011;61859;49.204;8.140;2023-03-01T00:46:11;9.53;;;6.37;;
73575;SDS011;61859;49.204;8.140;2023-03-01T00:48:38;10.80;;;6.70;;
73575;SDS011;61859;49.204;8.140;2023-03-01T00:51:08;17.53;;;6.13;;
73575;SDS011;61859;49.204;8.140;2023-03-01T00:53:35;8.97;;;5.90;;
73575;SDS011;61859;49.204;8.140;2023-03-01T00:56:01;10.70;;;6.03;;
73575;SDS011;61859;49.204;8.140;2023-03-01T00:58:28;9.30;;;6.57;;
73575;SDS011;61859;49.204;8.140;2023-03-01T01:00:53;9.83;;;6.43;;
73575;SDS011;61859;49.204;8.140;2023-03-01T01:03:19;11.40;;;7.20;;
73575;SDS011;61859;49.204;8.140;2023-03-01T01:05:45;14.00;;;6.63;;
73575;SDS011;61859;49.204;8.140;2023-03-01T01:08:10;9.20;;;6.57;;
73575;SDS011;61859;49.204;8.140;2023-03-01T01:10:36;12.10;;;6.70;;
73575;SDS011;61859;49.204;8.140;2023-03-01T01:13:02;10.03;;;6.33;;
73575;SDS011;61859;49.204;8.140;2023-03-01T01:15:29;9.40;;;6.13;;
73575;SDS011;61859;49.204;8.140;2023-03-01T01:17:57;9.30;;;6.83;;
73575;SDS011;61859;49.204;8.140;2023-03-01T01:20:23;10.50;;;6.23;;
73575;SDS011;61859;49.204;8.140;2023-03-01T01:22:48;10.13;;;6.73;;
73575;SDS011;61859;49.204;8.140;2023-03-01T01:25:14;9.43;;;6.60;;
73575;SDS011;61859;49.204;8.140;2023-03-01T01:27:39;10.17;;;6.53;;
73575;SDS011;61859;49.204;8.140;2023-03-01T01:30:05;10.97;;;7.27;;
73575;SDS011;61859;49.204;8.140;2023-03-01T01:32:31;9.50;;;6.83;;
73575;SDS011;61859;49.204;8.140;2023-03-01T01:34:56;10.57;;;7.23;;
73575;SDS011;61859;49.204;8.140;2023-03-01T01:37:22;10.07;;;6.93;;
73575;SDS011;61859;49.204;8.140;2023-03-01T01:39:47;13.70;;;7.57;;
73575;SDS011;61859;49.204;8.140;2023-03-01T01:42:17;12.93;;;6.83;;
73575;SDS011;61859;49.204;8.140;2023-03-01T01:44:46;9.77;;;6.93;;
73575;SDS011;61859;49.204;8.140;2023-03-01T01:47:13;11.57;;;7.50;;
73575;SDS011;61859;49.204;8.140;2023-03-01T01:49:49;10.10;;;6.83;;
73575;SDS011;61859;49.204;8.140;2023-03-01T01:52:22;8.33;;;6.40;;
73575;SDS011;61859;49.204;8.140;2023-03-01T01:57:37;14.13;;;7.43;;
73575;SDS011;61859;49.204;8.140;2023-03-01T02:00:12;11.77;;;7.20;;
73575;SDS011;61859;49.204;8.140;2023-03-01T02:02:41;12.33;;;7.47;;
73575;SDS011;61859;49.204;8.140;2023-03-01T02:05:11;12.07;;;7.37;;
73575;SDS011;61859;49.204;8.140;2023-03-01T02:07:41;8.70;;;6.97;;
73575;SDS011;61859;49.204;8.140;2023-03-01T02:10:08;9.60;;;7.17;;
73575;SDS011;61859;49.204;8.140;2023-03-01T02:12:34;14.70;;;7.87;;
73575;SDS011;61859;49.204;8.140;2023-03-01T02:15:02;11.40;;;7.43;;
73575;SDS011;61859;49.204;8.140;2023-03-01T02:17:27;13.33;;;7.77;;
73575;SDS011;61859;49.204;8.140;2023-03-01T02:22:47;12.90;;;7.67;;
73575;SDS011;61859;49.204;8.140;2023-03-01T02:30:30;11.20;;;7.67;;
73575;SDS011;61859;49.204;8.140;2023-03-01T02:32:57;13.80;;;7.40;;
73575;SDS011;61859;49.204;8.140;2023-03-01T02:35:27;13.57;;;8.17;;
73575;SDS011;61859;49.204;8.140;2023-03-01T02:37:54;14.67;;;8.37;;
73575;SDS011;61859;49.204;8.140;2023-03-01T02:40:22;11.67;;;8.30;;
73575;SDS011;61859;49.204;8.140;2023-03-01T02:42:53;13.83;;;8.40;;
73575;SDS011;61859;49.204;8.140;2023-03-01T02:45:21;14.53;;;7.63;;
73575;SDS011;61859;49.204;8.140;2023-03-01T02:47:47;15.47;;;7.63;;
73575;SDS011;61859;49.204;8.140;2023-03-01T02:53:00;15.33;;;7.67;;
73575;SDS011;61859;49.204;8.140;2023-03-01T02:55:35;10.87;;;7.73;;
73575;SDS011;61859;49.204;8.140;2023-03-01T02:58:02;10.27;;;6.97;;
73575;SDS011;61859;49.204;8.140;2023-03-01T03:00:30;12.63;;;7.97;;
73575;SDS011;61859;49.204;8.140;2023-03-01T03:03:04;13.83;;;8.33;;
73575;SDS011;61859;49.204;8.140;2023-03-01T03:05:31;10.90;;;7.57;;
73575;SDS011;61859;49.204;8.140;2023-03-01T03:07:58;9.27;;;6.60;;
73575;SDS011;61859;49.204;8.140;2023-03-01T03:10:27;15.57;;;8.33;;
73575;SDS011;61859;49.204;8.140;2023-03-01T03:12:56;12.37;;;7.50;;
73575;SDS011;61859;49.204;8.140;2023-03-01T03:15:27;15.20;;;8.17;;
73575;SDS011;61859;49.204;8.140;2023-03-01T03:17:54;13.30;;;7.90;;
73575;SDS011;61859;49.204;8.140;2023-03-01T03:20:21;14.67;;;8.27;;
73575;SDS011;61859;49.204;8.140;2023-03-01T03:22:50;12.30;;;7.30;;
73575;SDS011;61859;49.204;8.140;2023-03-01T03:25:17;12.53;;;8.03;;
73575;SDS011;61859;49.204;8.140;2023-03-01T03:27:44;13.80;;;8.70;;
73575;SDS011;61859;49.204;8.140;2023-03-01T03:30:13;12.90;;;8.43;;
73575;SDS011;61859;49.204;8.140;2023-03-01T03:32:41;13.40;;;8.90;;
73575;SDS011;61859;49.204;8.140;2023-03-01T03:35:16;13.23;;;7.40;;
73575;SDS011;61859;49.204;8.140;2023-03-01T03:37:47;16.10;;;8.77;;
73575;SDS011;61859;49.204;8.140;2023-03-01T03:40:38;11.70;;;8.00;;
73575;SDS011;61859;49.204;8.140;2023-03-01T03:43:09;11.93;;;8.10;;
73575;SDS011;61859;49.204;8.140;2023-03-01T03:45:37;13.47;;;8.37;;
73575;SDS011;61859;49.204;8.140;2023-03-01T03:48:03;12.73;;;8.13;;
73575;SDS011;61859;49.204;8.140;2023-03-01T03:50:30;10.60;;;7.47;;
73575;SDS011;61859;49.204;8.140;2023-03-01T03:52:56;12.87;;;8.23;;
73575;SDS011;61859;49.204;8.140;2023-03-01T03:55:22;12.20;;;7.87;;
73575;SDS011;61859;49.204;8.140;2023-03-01T03:57:48;12.93;;;8.27;;
73575;SDS011;61859;49.204;8.140;2023-03-01T04:00:17;12.53;;;8.20;;
73575;SDS011;61859;49.204;8.140;2023-03-01T04:02:45;11.73;;;7.90;;
73575;SDS011;61859;49.204;8.140;2023-03-01T04:05:13;15.57;;;8.43;;
73575;SDS011;61859;49.204;8.140;2023-03-01T04:07:41;12.43;;;8.13;;
73575;SDS011;61859;49.204;8.140;2023-03-01T04:10:14;15.43;;;9.23;;
73575;SDS011;61859;49.204;8.140;2023-03-01T04:12:42;12.70;;;7.63;;
73575;SDS011;61859;49.204;8.140;2023-03-01T04:15:08;17.03;;;8.40;;
73575;SDS011;61859;49.204;8.140;2023-03-01T04:17:44;13.20;;;8.43;;
73575;SDS011;61859;49.204;8.140;2023-03-01T04:20:12;12.53;;;8.20;;
73575;SDS011;61859;49.204;8.140;2023-03-01T04:22:50;13.53;;;8.30;;
73575;SDS011;61859;49.204;8.140;2023-03-01T04:25:16;16.03;;;8.83;;
73575;SDS011;61859;49.204;8.140;2023-03-01T04:27:43;11.47;;;7.43;;
73575;SDS011;61859;49.204;8.140;2023-03-01T04:30:08;10.77;;;6.90;;
73575;SDS011;61859;49.204;8.140;2023-03-01T04:32:34;14.30;;;8.47;;
73575;SDS011;61859;49.204;8.140;2023-03-01T04:35:00;13.90;;;9.30;;
73575;SDS011;61859;49.204;8.140;2023-03-01T04:37:26;12.60;;;8.63;;
73575;SDS011;61859;49.204;8.140;2023-03-01T04:39:52;13.37;;;8.63;;
73575;SDS011;61859;49.204;8.140;2023-03-01T04:42:18;15.47;;;8.90;;
73575;SDS011;61859;49.204;8.140;2023-03-01T04:44:44;14.80;;;7.97;;
73575;SDS011;61859;49.204;8.140;2023-03-01T04:47:10;14.93;;;8.83;;
73575;SDS011;61859;49.204;8.140;2023-03-01T04:49:36;13.80;;;9.07;;
73575;SDS011;61859;49.204;8.140;2023-03-01T04:52:02;14.50;;;8.93;;
73575;SDS011;61859;49.204;8.140;2023-03-01T04:54:29;15.27;;;8.83;;
73575;SDS011;61859;49.204;8.140;2023-03-01T04:56:55;10.57;;;7.30;;
73575;SDS011;61859;49.204;8.140;2023-03-01T04:59:21;13.33;;;8.80;;
73575;SDS011;61859;49.204;8.140;2023-03-01T05:01:47;18.17;;;8.63;;
73575;SDS011;61859;49.204;8.140;2023-03-01T05:04:14;15.37;;;8.93;;
73575;SDS011;61859;49.204;8.140;2023-03-01T05:06:39;19.43;;;9.80;;
73575;SDS011;61859;49.204;8.140;2023-03-01T05:09:05;15.03;;;9.10;;
73575;SDS011;61859;49.204;8.140;2023-03-01T05:11:31;14.07;;;9.03;;
73575;SDS011;61859;49.204;8.140;2023-03-01T05:14:04;13.77;;;8.97;;
73575;SDS011;61859;49.204;8.140;2023-03-01T05:16:30;12.90;;;8.63;;
73575;SDS011;61859;49.204;8.140;2023-03-01T05:18:57;12.37;;;7.90;;
73575;SDS011;61859;49.204;8.140;2023-03-01T05:21:23;15.73;;;9.53;;
73575;SDS011;61859;49.204;8.140;2023-03-01T05:23:49;12.37;;;8.23;;
73575;SDS011;61859;49.204;8.140;2023-03-01T05:26:16;12.50;;;8.27;;
73575;SDS011;61859;49.204;8.140;2023-03-01T05:28:43;16.50;;;8.70;;
73575;SDS011;61859;49.204;8.140;2023-03-01T05:31:10;13.33;;;8.40;;
73575;SDS011;61859;49.204;8.140;2023-03-01T05:33:36;14.93;;;9.10;;
73575;SDS011;61859;49.204;8.140;2023-03-01T05:36:03;13.50;;;8.83;;
73575;SDS011;61859;49.204;8.140;2023-03-01T05:38:29;16.30;;;9.77;;
73575;SDS011;61859;49.204;8.140;2023-03-01T05:40:55;19.40;;;10.37;;
73575;SDS011;61859;49.204;8.140;2023-03-01T05:43:20;12.00;;;7.97;;
73575;SDS011;61859;49.204;8.140;2023-03-01T05:45:46;12.87;;;8.87;;
73575;SDS011;61859;49.204;8.140;2023-03-01T05:48:12;13.80;;;9.23;;
73575;SDS011;61859;49.204;8.140;2023-03-01T05:50:41;12.23;;;8.97;;
73575;SDS011;61859;49.204;8.140;2023-03-01T05:53:12;16.70;;;8.50;;
73575;SDS011;61859;49.204;8.140;2023-03-01T05:55:40;19.20;;;9.90;;
73575;SDS011;61859;49.204;8.140;2023-03-01T05:58:09;20.63;;;10.10;;
73575;SDS011;61859;49.204;8.140;2023-03-01T06:00:36;16.17;;;8.77;;
73575;SDS011;61859;49.204;8.140;2023-03-01T06:03:02;16.23;;;9.00;;
73575;SDS011;61859;49.204;8.140;2023-03-01T06:05:28;14.67;;;9.40;;
73575;SDS011;61859;49.204;8.140;2023-03-01T06:07:54;16.70;;;10.17;;
73575;SDS011;61859;49.204;8.140;2023-03-01T06:10:23;15.57;;;9.60;;
73575;SDS011;61859;49.204;8.140;2023-03-01T06:12:48;13.50;;;8.73;;
73575;SDS011;61859;49.204;8.140;2023-03-01T06:15:14;13.03;;;8.43;;
73575;SDS011;61859;49.204;8.140;2023-03-01T06:17:42;14.87;;;9.33;;
73575;SDS011;61859;49.204;8.140;2023-03-01T06:20:10;16.73;;;9.20;;
73575;SDS011;61859;49.204;8.140;2023-03-01T06:22:36;15.73;;;10.07;;
73575;SDS011;61859;49.204;8.140;2023-03-01T06:25:02;13.93;;;9.17;;
73575;SDS011;61859;49.204;8.140;2023-03-01T06:27:28;16.27;;;9.67;;
73575;SDS011;61859;49.204;8.140;2023-03-01T06:29:54;17.30;;;9.07;;
73575;SDS011;61859;49.204;8.140;2023-03-01T06:32:19;17.07;;;10.00;;
73575;SDS011;61859;49.204;8.140;2023-03-01T06:34:45;16.10;;;9.87;;
73575;SDS011;61859;49.204;8.140;2023-03-01T06:37:11;16.17;;;9.10;;
73575;SDS011;61859;49.204;8.140;2023-03-01T06:39:36;15.63;;;10.00;;
73575;SDS011;61859;49.204;8.140;2023-03-01T06:42:02;19.63;;;10.13;;
73575;SDS011;61859;49.204;8.140;2023-03-01T06:44:28;13.07;;;8.93;;
73575;SDS011;61859;49.204;8.140;2023-03-01T06:46:53;21.23;;;10.00;;
73575;SDS011;61859;49.204;8.140;2023-03-01T06:49:19;13.77;;;9.30;;
73575;SDS011;61859;49.204;8.140;2023-03-01T06:51:45;14.93;;;9.50;;
73575;SDS011;61859;49.204;8.140;2023-03-01T06:54:11;15.70;;;9.80;;
73575;SDS011;61859;49.204;8.140;2023-03-01T06:56:37;14.13;;;8.97;;
73575;SDS011;61859;49.204;8.140;2023-03-01T06:59:02;16.03;;;9.70;;
73575;SDS011;61859;49.204;8.140;2023-03-01T07:01:28;16.57;;;10.17;;
73575;SDS011;61859;49.204;8.140;2023-03-01T07:03:54;13.90;;;9.20;;
73575;SDS011;61859;49.204;8.140;2023-03-01T07:06:21;17.30;;;10.13;;
73575;SDS011;61859;49.204;8.140;2023-03-01T07:08:46;18.40;;;10.27;;
73575;SDS011;61859;49.204;8.140;2023-03-01T07:11:12;17.30;;;10.57;;
73575;SDS011;61859;49.204;8.140;2023-03-01T07:13:38;16.40;;;10.13;;
73575;SDS011;61859;49.204;8.140;2023-03-01T07:16:03;15.67;;;9.83;;
73575;SDS011;61859;49.204;8.140;2023-03-01T07:18:29;13.83;;;9.13;;
73575;SDS011;61859;49.204;8.140;2023-03-01T07:20:55;14.37;;;9.20;;
73575;SDS011;61859;49.204;8.140;2023-03-01T07:23:20;14.10;;;9.43;;
73575;SDS011;61859;49.204;8.140;2023-03-01T07:25:52;14.13;;;8.60;;
73575;SDS011;61859;49.204;8.140;2023-03-01T07:28:24;15.10;;;9.30;;
73575;SDS011;61859;49.204;8.140;2023-03-01T07:30:49;14.17;;;9.27;;
73575;SDS011;61859;49.204;8.140;2023-03-01T07:33:16;12.57;;;9.67;;
73575;SDS011;61859;49.204;8.140;2023-03-01T07:35:41;13.73;;;8.73;;
73575;SDS011;61859;49.204;8.140;2023-03-01T07:38:07;16.07;;;9.83;;
73575;SDS011;61859;49.204;8.140;2023-03-01T07:40:33;17.17;;;9.93;;
73575;SDS011;61859;49.204;8.140;2023-03-01T07:42:58;16.43;;;10.03;;
73575;SDS011;61859;49.204;8.140;2023-03-01T07:45:26;14.20;;;9.60;;
73575;SDS011;61859;49.204;8.140;2023-03-01T07:47:52;15.27;;;9.43;;
73575;SDS011;61859;49.204;8.140;2023-03-01T07:50:18;15.50;;;9.47;;
73575;SDS011;61859;49.204;8.140;2023-03-01T07:52:47;19.33;;;10.13;;
73575;SDS011;61859;49.204;8.140;2023-03-01T07:55:14;15.60;;;9.53;;
73575;SDS011;61859;49.204;8.140;2023-03-01T07:57:40;19.53;;;10.00;;
73575;SDS011;61859;49.204;8.140;2023-03-01T08:00:07;15.57;;;9.87;;
73575;SDS011;61859;49.204;8.140;2023-03-01T08:02:35;15.10;;;9.40;;
73575;SDS011;61859;49.204;8.140;2023-03-01T08:05:00;18.23;;;9.80;;
73575;SDS011;61859;49.204;8.140;2023-03-01T08:07:26;15.97;;;10.07;;
73575;SDS011;61859;49.204;8.140;2023-03-01T08:09:51;18.40;;;10.33;;
73575;SDS011;61859;49.204;8.140;2023-03-01T08:12:17;20.97;;;9.53;;
73575;SDS011;61859;49.204;8.140;2023-03-01T08:14:42;13.67;;;9.03;;
73575;SDS011;61859;49.204;8.140;2023-03-01T08:17:08;13.80;;;9.30;;
73575;SDS011;61859;49.204;8.140;2023-03-01T08:19:34;17.27;;;9.80;;
73575;SDS011;61859;49.204;8.140;2023-03-01T08:21:59;15.10;;;9.53;;
73575;SDS011;61859;49.204;8.140;2023-03-01T08:24:26;16.63;;;9.70;;
73575;SDS011;61859;49.204;8.140;2023-03-01T08:26:52;14.90;;;9.30;;
73575;SDS011;61859;49.204;8.140;2023-03-01T08:29:18;13.93;;;8.80;;
73575;SDS011;61859;49.204;8.140;2023-03-01T08:31:44;16.63;;;9.73;;
73575;SDS011;61859;49.204;8.140;2023-03-01T08:34:11;18.27;;;9.90;;
73575;SDS011;61859;49.204;8.140;2023-03-01T08:36:39;15.27;;;10.13;;
73575;SDS011;61859;49.204;8.140;2023-03-01T08:39:07;20.20;;;10.37;;
73575;SDS011;61859;49.204;8.140;2023-03-01T08:41:34;14.63;;;9.90;;
73575;SDS011;61859;49.204;8.140;2023-03-01T08:44:00;14.10;;;9.17;;
73575;SDS011;61859;49.204;8.140;2023-03-01T08:46:26;17.77;;;9.23;;
73575;SDS011;61859;49.204;8.140;2023-03-01T08:48:53;16.40;;;9.60;;
73575;SDS011;61859;49.204;8.140;2023-03-01T08:51:19;13.63;;;9.47;;
73575;SDS011;61859;49.204;8.140;2023-03-01T08:53:45;13.97;;;9.23;;
73575;SDS011;61859;49.204;8.140;2023-03-01T08:56:12;14.87;;;9.87;;
73575;SDS011;61859;49.204;8.140;2023-03-01T08:58:43;15.27;;;9.57;;
73575;SDS011;61859;49.204;8.140;2023-03-01T09:01:10;15.20;;;9.07;;
73575;SDS011;61859;49.204;8.140;2023-03-01T09:03:38;14.00;;;9.77;;
73575;SDS011;61859;49.204;8.140;2023-03-01T09:06:04;13.90;;;8.80;;
73575;SDS011;61859;49.204;8.140;2023-03-01T09:08:34;14.93;;;9.57;;
73575;SDS011;61859;49.204;8.140;2023-03-01T09:11:01;16.63;;;9.83;;
73575;SDS011;61859;49.204;8.140;2023-03-01T09:13:28;14.93;;;9.77;;
73575;SDS011;61859;49.204;8.140;2023-03-01T09:15:56;17.23;;;10.23;;
73575;SDS011;61859;49.204;8.140;2023-03-01T09:18:22;14.03;;;9.40;;
73575;SDS011;61859;49.204;8.140;2023-03-01T09:20:47;15.30;;;9.93;;
73575;SDS011;61859;49.204;8.140;2023-03-01T09:23:13;16.97;;;9.93;;
73575;SDS011;61859;49.204;8.140;2023-03-01T09:25:38;13.47;;;10.10;;
73575;SDS011;61859;49.204;8.140;2023-03-01T09:28:04;19.50;;;10.13;;
73575;SDS011;61859;49.204;8.140;2023-03-01T09:30:29;17.80;;;9.67;;
73575;SDS011;61859;49.204;8.140;2023-03-01T09:32:58;15.37;;;10.47;;
73575;SDS011;61859;49.204;8.140;2023-03-01T09:35:24;14.93;;;9.97;;
73575;SDS011;61859;49.204;8.140;2023-03-01T09:37:49;15.07;;;9.93;;
73575;SDS011;61859;49.204;8.140;2023-03-01T09:40:17;13.90;;;9.43;;
73575;SDS011;61859;49.204;8.140;2023-03-01T09:42:51;13.77;;;9.63;;
73575;SDS011;61859;49.204;8.140;2023-03-01T09:45:35;15.33;;;9.90;;
73575;SDS011;61859;49.204;8.140;2023-03-01T09:48:06;14.93;;;9.67;;
73575;SDS011;61859;49.204;8.140;2023-03-01T09:50:51;18.47;;;9.87;;
73575;SDS011;61859;49.204;8.140;2023-03-01T09:53:26;17.03;;;9.93;;
73575;SDS011;61859;49.204;8.140;2023-03-01T09:56:02;14.43;;;9.37;;
73575;SDS011;61859;49.204;8.140;2023-03-01T10:01:34;12.70;;;9.17;;
73575;SDS011;61859;49.204;8.140;2023-03-01T10:09:39;15.03;;;9.90;;
73575;SDS011;61859;49.204;8.140;2023-03-01T10:12:14;13.23;;;9.33;;
73575;SDS011;61859;49.204;8.140;2023-03-01T10:17:24;16.57;;;9.37;;
73575;SDS011;61859;49.204;8.140;2023-03-01T10:19:55;11.13;;;8.60;;
73575;SDS011;61859;49.204;8.140;2023-03-01T10:22:29;18.03;;;10.27;;
73575;SDS011;61859;49.204;8.140;2023-03-01T10:24:58;13.93;;;9.57;;
73575;SDS011;61859;49.204;8.140;2023-03-01T10:32:38;13.87;;;9.87;;
73575;SDS011;61859;49.204;8.140;2023-03-01T10:40:28;13.47;;;9.70;;
73575;SDS011;61859;49.204;8.140;2023-03-01T10:42:54;13.23;;;9.47;;
73575;SDS011;61859;49.204;8.140;2023-03-01T10:47:57;15.87;;;10.30;;
73575;SDS011;61859;49.204;8.140;2023-03-01T10:50:42;11.90;;;9.50;;
73575;SDS011;61859;49.204;8.140;2023-03-01T10:58:24;14.77;;;9.63;;
73575;SDS011;61859;49.204;8.140;2023-03-01T11:00:54;12.80;;;8.57;;
73575;SDS011;61859;49.204;8.140;2023-03-01T11:03:26;13.80;;;9.90;;
73575;SDS011;61859;49.204;8.140;2023-03-01T11:08:34;12.00;;;9.43;;
73575;SDS011;61859;49.204;8.140;2023-03-01T11:13:57;15.77;;;9.90;;
73575;SDS011;61859;49.204;8.140;2023-03-01T11:16:25;13.97;;;9.93;;
73575;SDS011;61859;49.204;8.140;2023-03-01T11:18:56;15.03;;;10.20;;
73575;SDS011;61859;49.204;8.140;2023-03-01T11:21:22;13.07;;;9.60;;
73575;SDS011;61859;49.204;8.140;2023-03-01T11:23:49;13.60;;;9.70;;
73575;SDS011;61859;49.204;8.140;2023-03-01T11:26:15;13.43;;;9.83;;
73575;SDS011;61859;49.204;8.140;2023-03-01T11:28:42;14.43;;;10.60;;
73575;SDS011;61859;49.204;8.140;2023-03-01T11:31:11;13.97;;;9.90;;
73575;SDS011;61859;49.204;8.140;2023-03-01T11:42:17;13.60;;;9.97;;
73575;SDS011;61859;49.204;8.140;2023-03-01T11:44:48;14.37;;;9.43;;
73575;SDS011;61859;49.204;8.140;2023-03-01T11:47:22;11.47;;;9.03;;
73575;SDS011;61859;49.204;8.140;2023-03-01T11:49:52;14.33;;;9.83;;
73575;SDS011;61859;49.204;8.140;2023-03-01T11:52:22;13.33;;;10.03;;
73575;SDS011;61859;49.204;8.140;2023-03-01T11:55:25;12.37;;;9.17;;
73575;SDS011;61859;49.204;8.140;2023-03-01T11:58:07;10.67;;;8.47;;
73575;SDS011;61859;49.204;8.140;2023-03-01T12:00:58;11.97;;;9.70;;
73575;SDS011;61859;49.204;8.140;2023-03-01T12:03:41;15.37;;;10.13;;
73575;SDS011;61859;49.204;8.140;2023-03-01T12:09:43;14.00;;;10.13;;
73575;SDS011;61859;49.204;8.140;2023-03-01T12:12:32;11.90;;;9.67;;
73575;SDS011;61859;49.204;8.140;2023-03-01T12:21:41;12.43;;;9.30;;
73575;SDS011;61859;49.204;8.140;2023-03-01T12:26:18;12.90;;;9.53;;
73575;SDS011;61859;49.204;8.140;2023-03-01T12:32:03;12.27;;;9.80;;
73575;SDS011;61859;49.204;8.140;2023-03-01T12:37:47;13.73;;;9.50;;
73575;SDS011;61859;49.204;8.140;2023-03-01T12:42:55;12.00;;;9.53;;
73575;SDS011;61859;49.204;8.140;2023-03-01T12:48:57;12.50;;;9.57;;
73575;SDS011;61859;49.204;8.140;2023-03-01T12:51:31;11.37;;;8.90;;
73575;SDS011;61859;49.204;8.140;2023-03-01T12:53:59;12.63;;;9.33;;
73575;SDS011;61859;49.204;8.140;2023-03-01T12:56:32;12.73;;;9.20;;
73575;SDS011;61859;49.204;8.140;2023-03-01T12:59:12;11.87;;;9.30;;
73575;SDS011;61859;49.204;8.140;2023-03-01T13:01:54;11.90;;;9.20;;
73575;SDS011;61859;49.204;8.140;2023-03-01T13:04:48;12.80;;;10.10;;
73575;SDS011;61859;49.204;8.140;2023-03-01T13:10:10;13.13;;;9.67;;
73575;SDS011;61859;49.204;8.140;2023-03-01T13:17:49;11.57;;;9.10;;
73575;SDS011;61859;49.204;8.140;2023-03-01T13:20:17;12.67;;;9.87;;
73575;SDS011;61859;49.204;8.140;2023-03-01T13:22:45;13.77;;;10.20;;
73575;SDS011;61859;49.204;8.140;2023-03-01T13:25:19;12.63;;;9.83;;
73575;SDS011;61859;49.204;8.140;2023-03-01T13:27:45;14.33;;;9.73;;
73575;SDS011;61859;49.204;8.140;2023-03-01T13:35:52;11.27;;;9.10;;
73575;SDS011;61859;49.204;8.140;2023-03-01T13:41:03;9.40;;;8.30;;
73575;SDS011;61859;49.204;8.140;2023-03-01T13:43:40;11.93;;;8.90;;
73575;SDS011;61859;49.204;8.140;2023-03-01T13:46:11;12.87;;;9.80;;
73575;SDS011;61859;49.204;8.140;2023-03-01T13:48:49;14.60;;;9.93;;
73575;SDS011;61859;49.204;8.140;2023-03-01T13:51:20;12.97;;;9.10;;
73575;SDS011;61859;49.204;8.140;2023-03-01T13:53:51;11.83;;;8.90;;
73575;SDS011;61859;49.204;8.140;2023-03-01T13:56:24;10.57;;;8.63;;
73575;SDS011;61859;49.204;8.140;2023-03-01T13:58:59;12.63;;;9.97;;
73575;SDS011;61859;49.204;8.140;2023-03-01T14:01:30;11.70;;;8.90;;
73575;SDS011;61859;49.204;8.140;2023-03-01T14:03:56;11.93;;;9.23;;
73575;SDS011;61859;49.204;8.140;2023-03-01T14:06:26;10.13;;;8.40;;
73575;SDS011;61859;49.204;8.140;2023-03-01T14:09:01;13.47;;;9.10;;
73575;SDS011;61859;49.204;8.140;2023-03-01T14:11:40;11.13;;;8.90;;
73575;SDS011;61859;49.204;8.140;2023-03-01T14:14:29;12.43;;;8.13;;
73575;SDS011;61859;49.204;8.140;2023-03-01T14:17:10;9.40;;;7.47;;
73575;SDS011;61859;49.204;8.140;2023-03-01T14:19:47;11.37;;;8.37;;
73575;SDS011;61859;49.204;8.140;2023-03-01T14:22:29;9.00;;;7.53;;
73575;SDS011;61859;49.204;8.140;2023-03-01T14:25:00;16.80;;;8.97;;
73575;SDS011;61859;49.204;8.140;2023-03-01T14:27:32;11.43;;;8.40;;
73575;SDS011;61859;49.204;8.140;2023-03-01T14:30:10;11.77;;;8.57;;
73575;SDS011;61859;49.204;8.140;2023-03-01T14:32:42;13.10;;;8.37;;
73575;SDS011;61859;49.204;8.140;2023-03-01T14:35:23;9.13;;;7.97;;
73575;SDS011;61859;49.204;8.140;2023-03-01T14:37:56;10.33;;;8.47;;
73575;SDS011;61859;49.204;8.140;2023-03-01T14:40:27;9.77;;;7.80;;
73575;SDS011;61859;49.204;8.140;2023-03-01T14:42:56;9.40;;;7.50;;
73575;SDS011;61859;49.204;8.140;2023-03-01T14:45:24;10.97;;;8.43;;
73575;SDS011;61859;49.204;8.140;2023-03-01T14:47:52;8.27;;;7.00;;
73575;SDS011;61859;49.204;8.140;2023-03-01T14:50:21;11.47;;;7.40;;
73575;SDS011;61859;49.204;8.140;2023-03-01T14:53:01;9.33;;;7.37;;
73575;SDS011;61859;49.204;8.140;2023-03-01T14:55:31;10.07;;;7.80;;
73575;SDS011;61859;49.204;8.140;2023-03-01T14:58:03;11.03;;;7.10;;
73575;SDS011;61859;49.204;8.140;2023-03-01T15:00:31;8.23;;;6.43;;
73575;SDS011;61859;49.204;8.140;2023-03-01T15:03:10;9.40;;;7.40;;
73575;SDS011;61859;49.204;8.140;2023-03-01T15:05:39;9.93;;;7.37;;
73575;SDS011;61859;49.204;8.140;2023-03-01T15:08:06;8.93;;;7.17;;
73575;SDS011;61859;49.204;8.140;2023-03-01T15:10:39;9.10;;;7.17;;
73575;SDS011;61859;49.204;8.140;2023-03-01T15:13:12;11.17;;;7.77;;
73575;SDS011;61859;49.204;8.140;2023-03-01T15:15:49;9.13;;;7.57;;
73575;SDS011;61859;49.204;8.140;2023-03-01T15:18:19;8.40;;;7.50;;
73575;SDS011;61859;49.204;8.140;2023-03-01T15:20:54;8.17;;;6.93;;
73575;SDS011;61859;49.204;8.140;2023-03-01T15:23:30;8.00;;;6.67;;
73575;SDS011;61859;49.204;8.140;2023-03-01T15:25:56;12.40;;;7.83;;
73575;SDS011;61859;49.204;8.140;2023-03-01T15:30:54;9.60;;;7.40;;
73575;SDS011;61859;49.204;8.140;2023-03-01T15:33:31;8.53;;;6.53;;
73575;SDS011;61859;49.204;8.140;2023-03-01T15:35:59;8.20;;;6.80;;
73575;SDS011;61859;49.204;8.140;2023-03-01T15:38:29;11.67;;;7.70;;
73575;SDS011;61859;49.204;8.140;2023-03-01T15:41:26;10.87;;;7.37;;
73575;SDS011;61859;49.204;8.140;2023-03-01T15:43:52;9.47;;;7.00;;
73575;SDS011;61859;49.204;8.140;2023-03-01T15:46:27;10.33;;;7.13;;
73575;SDS011;61859;49.204;8.140;2023-03-01T15:48:55;9.17;;;7.23;;
73575;SDS011;61859;49.204;8.140;2023-03-01T15:51:22;9.73;;;6.83;;
73575;SDS011;61859;49.204;8.140;2023-03-01T15:53:54;9.33;;;6.80;;
73575;SDS011;61859;49.204;8.140;2023-03-01T15:56:21;8.37;;;6.97;;
73575;SDS011;61859;49.204;8.140;2023-03-01T15:58:46;9.73;;;7.07;;
73575;SDS011;61859;49.204;8.140;2023-03-01T16:01:13;10.03;;;6.87;;
73575;SDS011;61859;49.204;8.140;2023-03-01T16:03:40;11.33;;;6.80;;
73575;SDS011;61859;49.204;8.140;2023-03-01T16:06:08;8.40;;;6.83;;
73575;SDS011;61859;49.204;8.140;2023-03-01T16:08:34;9.77;;;7.00;;
73575;SDS011;61859;49.204;8.140;2023-03-01T16:11:00;11.07;;;7.43;;
73575;SDS011;61859;49.204;8.140;2023-03-01T16:13:29;11.50;;;7.23;;
73575;SDS011;61859;49.204;8.140;2023-03-01T16:15:56;10.17;;;6.73;;
73575;SDS011;61859;49.204;8.140;2023-03-01T16:18:22;10.60;;;7.17;;
73575;SDS011;61859;49.204;8.140;2023-03-01T16:20:47;10.00;;;6.70;;
73575;SDS011;61859;49.204;8.140;2023-03-01T16:23:14;11.77;;;7.20;;
73575;SDS011;61859;49.204;8.140;2023-03-01T16:25:40;10.17;;;7.63;;
73575;SDS011;61859;49.204;8.140;2023-03-01T16:28:05;10.00;;;7.10;;